<?xml version="1.0" encoding="utf-8"?>
<gpx xmlns:xsi="http://www.w3.org/2001/XMLSchema-instance" xmlns:xsd="http://www.w3.org/2001/XMLSchema" version="1.1" creator="Shapelink.com" xmlns="http://www.topografix.com/GPX/1/1" xmlns:gpxtpx="http://www.garmin.com/xmlschemas/TrackPointExtension/v1">
  <metadata>
    <name>Löpning 3.07 km, 2019-09-23</name>
    <desc></desc>
    <author><name>Henrik Staffas</name></author> 
    <time>2019-09-23T17:35:37Z</time>
  </metadata>
  <trk>
    <name>Löpning 3.07 km, 2019-09-23</name>
    <trkseg>
      <trkpt lat="59.319717827692" lon="17.668126459941">
        <ele>20.6</ele>
        <time>2019-09-23T17:35:37Z</time>
      </trkpt>
      <trkpt lat="59.319792007507" lon="17.668176080789">
        <ele>19.4</ele>
        <time>2019-09-23T17:35:40Z</time>
      </trkpt>
      <trkpt lat="59.319935673273" lon="17.668323602229">
        <ele>20</ele>
        <time>2019-09-23T17:35:47Z</time>
      </trkpt>
      <trkpt lat="59.32005830047" lon="17.6686344869">
        <ele>20</ele>
        <time>2019-09-23T17:35:55Z</time>
      </trkpt>
      <trkpt lat="59.320083027075" lon="17.669006559441">
        <ele>19.6</ele>
        <time>2019-09-23T17:36:04Z</time>
      </trkpt>
      <trkpt lat="59.320061820868" lon="17.66936203582">
        <ele>19.2</ele>
        <time>2019-09-23T17:36:12Z</time>
      </trkpt>
      <trkpt lat="59.320024102318" lon="17.669730587963">
        <ele>18.8</ele>
        <time>2019-09-23T17:36:20Z</time>
      </trkpt>
      <trkpt lat="59.320019911368" lon="17.670096206441">
        <ele>18.4</ele>
        <time>2019-09-23T17:36:28Z</time>
      </trkpt>
      <trkpt lat="59.319997028781" lon="17.670490155741">
        <ele>18.6</ele>
        <time>2019-09-23T17:36:37Z</time>
      </trkpt>
      <trkpt lat="59.319952939987" lon="17.670863485567">
        <ele>18.2</ele>
        <time>2019-09-23T17:36:44Z</time>
      </trkpt>
      <trkpt lat="59.319941037689" lon="17.670970438611">
        <ele>18.2</ele>
        <time>2019-09-23T17:36:46Z</time>
      </trkpt>
      <trkpt lat="59.319901894216" lon="17.671359694047">
        <ele>17.8</ele>
        <time>2019-09-23T17:36:54Z</time>
      </trkpt>
      <trkpt lat="59.319899714922" lon="17.671712488218">
        <ele>18.2</ele>
        <time>2019-09-23T17:37:01Z</time>
      </trkpt>
      <trkpt lat="59.31981354899" lon="17.672022367061">
        <ele>18.6</ele>
        <time>2019-09-23T17:37:09Z</time>
      </trkpt>
      <trkpt lat="59.319749511274" lon="17.672240212642">
        <ele>18.8</ele>
        <time>2019-09-23T17:37:15Z</time>
      </trkpt>
      <trkpt lat="59.319725958135" lon="17.672293437707">
        <ele>19</ele>
        <time>2019-09-23T17:37:17Z</time>
      </trkpt>
      <trkpt lat="59.319663848256" lon="17.672406174262">
        <ele>19.4</ele>
        <time>2019-09-23T17:37:21Z</time>
      </trkpt>
      <trkpt lat="59.319562511085" lon="17.672539027377">
        <ele>20</ele>
        <time>2019-09-23T17:37:26Z</time>
      </trkpt>
      <trkpt lat="59.319491851668" lon="17.672682274048">
        <ele>20.6</ele>
        <time>2019-09-23T17:37:30Z</time>
      </trkpt>
      <trkpt lat="59.319324968039" lon="17.672896012498">
        <ele>21.8</ele>
        <time>2019-09-23T17:37:37Z</time>
      </trkpt>
      <trkpt lat="59.319191444372" lon="17.673161467271">
        <ele>22.4</ele>
        <time>2019-09-23T17:37:44Z</time>
      </trkpt>
      <trkpt lat="59.319074684505" lon="17.673436225953">
        <ele>22.6</ele>
        <time>2019-09-23T17:37:51Z</time>
      </trkpt>
      <trkpt lat="59.318973934067" lon="17.673615682432">
        <ele>22.8</ele>
        <time>2019-09-23T17:37:56Z</time>
      </trkpt>
      <trkpt lat="59.318902185003" lon="17.673847358148">
        <ele>23.2</ele>
        <time>2019-09-23T17:38:02Z</time>
      </trkpt>
      <trkpt lat="59.318863628263" lon="17.673965123843">
        <ele>24</ele>
        <time>2019-09-23T17:38:05Z</time>
      </trkpt>
      <trkpt lat="59.318851558327" lon="17.674044416617">
        <ele>25</ele>
        <time>2019-09-23T17:38:07Z</time>
      </trkpt>
      <trkpt lat="59.318848876119" lon="17.674135024956">
        <ele>26</ele>
        <time>2019-09-23T17:38:09Z</time>
      </trkpt>
      <trkpt lat="59.318849714309" lon="17.674254969945">
        <ele>27.2</ele>
        <time>2019-09-23T17:38:12Z</time>
      </trkpt>
      <trkpt lat="59.318840913314" lon="17.67440207229">
        <ele>28.6</ele>
        <time>2019-09-23T17:38:16Z</time>
      </trkpt>
      <trkpt lat="59.318835129803" lon="17.674512378094">
        <ele>30</ele>
        <time>2019-09-23T17:38:19Z</time>
      </trkpt>
      <trkpt lat="59.318817108718" lon="17.674636262576">
        <ele>31.4</ele>
        <time>2019-09-23T17:38:22Z</time>
      </trkpt>
      <trkpt lat="59.31880520642" lon="17.674747741846">
        <ele>32.8</ele>
        <time>2019-09-23T17:38:25Z</time>
      </trkpt>
      <trkpt lat="59.318790286638" lon="17.674821586385">
        <ele>33.6</ele>
        <time>2019-09-23T17:38:27Z</time>
      </trkpt>
      <trkpt lat="59.318773690476" lon="17.674860729858">
        <ele>34</ele>
        <time>2019-09-23T17:38:28Z</time>
      </trkpt>
      <trkpt lat="59.318742174532" lon="17.674938597709">
        <ele>35</ele>
        <time>2019-09-23T17:38:30Z</time>
      </trkpt>
      <trkpt lat="59.318726332741" lon="17.674973801689">
        <ele>35.2</ele>
        <time>2019-09-23T17:38:31Z</time>
      </trkpt>
      <trkpt lat="59.31866271412" lon="17.675102044759">
        <ele>36.2</ele>
        <time>2019-09-23T17:38:34Z</time>
      </trkpt>
      <trkpt lat="59.318619379697" lon="17.67522685125">
        <ele>37.4</ele>
        <time>2019-09-23T17:38:37Z</time>
      </trkpt>
      <trkpt lat="59.318548217366" lon="17.675423406805">
        <ele>38.6</ele>
        <time>2019-09-23T17:38:42Z</time>
      </trkpt>
      <trkpt lat="59.318427769463" lon="17.675705541559">
        <ele>38.8</ele>
        <time>2019-09-23T17:38:49Z</time>
      </trkpt>
      <trkpt lat="59.318294832529" lon="17.675975187282">
        <ele>39</ele>
        <time>2019-09-23T17:38:56Z</time>
      </trkpt>
      <trkpt lat="59.318215372117" lon="17.6761111417">
        <ele>39.6</ele>
        <time>2019-09-23T17:39:00Z</time>
      </trkpt>
      <trkpt lat="59.3181363308" lon="17.676305266504">
        <ele>40.6</ele>
        <time>2019-09-23T17:39:05Z</time>
      </trkpt>
      <trkpt lat="59.318016385811" lon="17.676612295501">
        <ele>41.4</ele>
        <time>2019-09-23T17:39:13Z</time>
      </trkpt>
      <trkpt lat="59.317928040585" lon="17.676835421679">
        <ele>41.6</ele>
        <time>2019-09-23T17:39:20Z</time>
      </trkpt>
      <trkpt lat="59.317913456079" lon="17.676890574581">
        <ele>41.6</ele>
        <time>2019-09-23T17:39:22Z</time>
      </trkpt>
      <trkpt lat="59.31789996122" lon="17.67696861007">
        <ele>41.8</ele>
        <time>2019-09-23T17:39:25Z</time>
      </trkpt>
      <trkpt lat="59.317856710616" lon="17.677062906445">
        <ele>42.4</ele>
        <time>2019-09-23T17:39:30Z</time>
      </trkpt>
      <trkpt lat="59.317715056506" lon="17.677291397039">
        <ele>42.2</ele>
        <time>2019-09-23T17:39:38Z</time>
      </trkpt>
      <trkpt lat="59.317550771266" lon="17.677519971452">
        <ele>42.2</ele>
        <time>2019-09-23T17:39:45Z</time>
      </trkpt>
      <trkpt lat="59.31744398586" lon="17.677806632432">
        <ele>42.2</ele>
        <time>2019-09-23T17:39:52Z</time>
      </trkpt>
      <trkpt lat="59.317384893465" lon="17.677977287916">
        <ele>42.2</ele>
        <time>2019-09-23T17:39:56Z</time>
      </trkpt>
      <trkpt lat="59.317366118009" lon="17.678109051384">
        <ele>42.8</ele>
        <time>2019-09-23T17:39:59Z</time>
      </trkpt>
      <trkpt lat="59.317315575152" lon="17.678332764295">
        <ele>43.8</ele>
        <time>2019-09-23T17:40:05Z</time>
      </trkpt>
      <trkpt lat="59.317218428931" lon="17.678677847118">
        <ele>43.6</ele>
        <time>2019-09-23T17:40:14Z</time>
      </trkpt>
      <trkpt lat="59.317182722037" lon="17.679037765904">
        <ele>43</ele>
        <time>2019-09-23T17:40:21Z</time>
      </trkpt>
      <trkpt lat="59.317179201639" lon="17.679400366898">
        <ele>43.6</ele>
        <time>2019-09-23T17:40:29Z</time>
      </trkpt>
      <trkpt lat="59.317176267974" lon="17.679754837449">
        <ele>44</ele>
        <time>2019-09-23T17:40:36Z</time>
      </trkpt>
      <trkpt lat="59.317174423956" lon="17.679851396937">
        <ele>44.8</ele>
        <time>2019-09-23T17:40:38Z</time>
      </trkpt>
      <trkpt lat="59.317157911613" lon="17.679944016932">
        <ele>45.4</ele>
        <time>2019-09-23T17:40:40Z</time>
      </trkpt>
      <trkpt lat="59.317061519763" lon="17.680086844508">
        <ele>46</ele>
        <time>2019-09-23T17:40:44Z</time>
      </trkpt>
      <trkpt lat="59.316906286975" lon="17.680269150833">
        <ele>46</ele>
        <time>2019-09-23T17:40:50Z</time>
      </trkpt>
      <trkpt lat="59.316759352268" lon="17.680476686677">
        <ele>46.2</ele>
        <time>2019-09-23T17:40:56Z</time>
      </trkpt>
      <trkpt lat="59.316636725071" lon="17.680742057631">
        <ele>46.4</ele>
        <time>2019-09-23T17:41:03Z</time>
      </trkpt>
      <trkpt lat="59.316510326019" lon="17.6810396989">
        <ele>46.2</ele>
        <time>2019-09-23T17:41:11Z</time>
      </trkpt>
      <trkpt lat="59.316465315216" lon="17.681153944197">
        <ele>46.2</ele>
        <time>2019-09-23T17:41:14Z</time>
      </trkpt>
      <trkpt lat="59.3163677499" lon="17.681469858008">
        <ele>45.8</ele>
        <time>2019-09-23T17:41:22Z</time>
      </trkpt>
      <trkpt lat="59.316215869872" lon="17.681713352203">
        <ele>45.8</ele>
        <time>2019-09-23T17:41:29Z</time>
      </trkpt>
      <trkpt lat="59.316063989844" lon="17.681979812804">
        <ele>44.6</ele>
        <time>2019-09-23T17:41:37Z</time>
      </trkpt>
      <trkpt lat="59.315904566106" lon="17.682268150164">
        <ele>43.6</ele>
        <time>2019-09-23T17:41:44Z</time>
      </trkpt>
      <trkpt lat="59.315891741799" lon="17.6826490237">
        <ele>44.4</ele>
        <time>2019-09-23T17:41:52Z</time>
      </trkpt>
      <trkpt lat="59.315910181979" lon="17.682734183804">
        <ele>45</ele>
        <time>2019-09-23T17:41:54Z</time>
      </trkpt>
      <trkpt lat="59.315946391787" lon="17.682948928082">
        <ele>46.2</ele>
        <time>2019-09-23T17:41:59Z</time>
      </trkpt>
      <trkpt lat="59.315939015715" lon="17.683333657292">
        <ele>46.8</ele>
        <time>2019-09-23T17:42:06Z</time>
      </trkpt>
      <trkpt lat="59.315944296312" lon="17.683428037486">
        <ele>47.2</ele>
        <time>2019-09-23T17:42:08Z</time>
      </trkpt>
      <trkpt lat="59.315955444239" lon="17.683562315524">
        <ele>48.6</ele>
        <time>2019-09-23T17:42:11Z</time>
      </trkpt>
      <trkpt lat="59.315977656274" lon="17.683697347933">
        <ele>49.6</ele>
        <time>2019-09-23T17:42:14Z</time>
      </trkpt>
      <trkpt lat="59.316015291005" lon="17.683976465203">
        <ele>50.8</ele>
        <time>2019-09-23T17:42:20Z</time>
      </trkpt>
      <trkpt lat="59.316008753123" lon="17.684045196783">
        <ele>51.4</ele>
        <time>2019-09-23T17:42:22Z</time>
      </trkpt>
      <trkpt lat="59.315998862481" lon="17.684072354139">
        <ele>52</ele>
        <time>2019-09-23T17:42:23Z</time>
      </trkpt>
      <trkpt lat="59.315906326305" lon="17.684267652409">
        <ele>53</ele>
        <time>2019-09-23T17:42:29Z</time>
      </trkpt>
      <trkpt lat="59.31575754758" lon="17.684515253735">
        <ele>52.6</ele>
        <time>2019-09-23T17:42:37Z</time>
      </trkpt>
      <trkpt lat="59.315604410267" lon="17.684804932199">
        <ele>52.4</ele>
        <time>2019-09-23T17:42:46Z</time>
      </trkpt>
      <trkpt lat="59.315477256844" lon="17.685087988962">
        <ele>53</ele>
        <time>2019-09-23T17:42:53Z</time>
      </trkpt>
      <trkpt lat="59.315362508633" lon="17.685379176168">
        <ele>53.2</ele>
        <time>2019-09-23T17:43:00Z</time>
      </trkpt>
      <trkpt lat="59.315236025762" lon="17.685682265672">
        <ele>54</ele>
        <time>2019-09-23T17:43:08Z</time>
      </trkpt>
      <trkpt lat="59.315218759048" lon="17.685713865435">
        <ele>54.2</ele>
        <time>2019-09-23T17:43:09Z</time>
      </trkpt>
      <trkpt lat="59.315067214296" lon="17.685918719071">
        <ele>54.8</ele>
        <time>2019-09-23T17:43:16Z</time>
      </trkpt>
      <trkpt lat="59.315000578191" lon="17.685990635773">
        <ele>55.4</ele>
        <time>2019-09-23T17:43:18Z</time>
      </trkpt>
      <trkpt lat="59.314877783356" lon="17.686256258184">
        <ele>56</ele>
        <time>2019-09-23T17:43:24Z</time>
      </trkpt>
      <trkpt lat="59.31474585225" lon="17.686572758728">
        <ele>55.4</ele>
        <time>2019-09-23T17:43:30Z</time>
      </trkpt>
      <trkpt lat="59.31462096194" lon="17.686850618713">
        <ele>55.2</ele>
        <time>2019-09-23T17:43:36Z</time>
      </trkpt>
      <trkpt lat="59.314471931758" lon="17.687075421271">
        <ele>55.4</ele>
        <time>2019-09-23T17:43:43Z</time>
      </trkpt>
      <trkpt lat="59.314306389233" lon="17.687282035106">
        <ele>55.6</ele>
        <time>2019-09-23T17:43:50Z</time>
      </trkpt>
      <trkpt lat="59.314131961894" lon="17.687400387534">
        <ele>55.4</ele>
        <time>2019-09-23T17:43:56Z</time>
      </trkpt>
      <trkpt lat="59.313955187623" lon="17.687514632831">
        <ele>54.4</ele>
        <time>2019-09-23T17:44:02Z</time>
      </trkpt>
      <trkpt lat="59.313926521525" lon="17.68753650959">
        <ele>54</ele>
        <time>2019-09-23T17:44:03Z</time>
      </trkpt>
      <trkpt lat="59.313750250168" lon="17.687605744084">
        <ele>52.8</ele>
        <time>2019-09-23T17:44:09Z</time>
      </trkpt>
      <trkpt lat="59.313641704563" lon="17.687644803738">
        <ele>51.6</ele>
        <time>2019-09-23T17:44:12Z</time>
      </trkpt>
      <trkpt lat="59.313461493713" lon="17.68777455555">
        <ele>50.6</ele>
        <time>2019-09-23T17:44:17Z</time>
      </trkpt>
      <trkpt lat="59.313388152088" lon="17.687842784216">
        <ele>50.4</ele>
        <time>2019-09-23T17:44:19Z</time>
      </trkpt>
      <trkpt lat="59.313236188241" lon="17.687962896843">
        <ele>49.4</ele>
        <time>2019-09-23T17:44:24Z</time>
      </trkpt>
      <trkpt lat="59.31304348836" lon="17.688001872678">
        <ele>48.2</ele>
        <time>2019-09-23T17:44:29Z</time>
      </trkpt>
      <trkpt lat="59.312958914989" lon="17.688029449129">
        <ele>47.4</ele>
        <time>2019-09-23T17:44:32Z</time>
      </trkpt>
      <trkpt lat="59.312939971895" lon="17.688016624822">
        <ele>47</ele>
        <time>2019-09-23T17:44:33Z</time>
      </trkpt>
      <trkpt lat="59.312928069597" lon="17.687993071683">
        <ele>46.8</ele>
        <time>2019-09-23T17:44:34Z</time>
      </trkpt>
      <trkpt lat="59.312931422357" lon="17.687903888267">
        <ele>46</ele>
        <time>2019-09-23T17:44:37Z</time>
      </trkpt>
      <trkpt lat="59.313000656851" lon="17.687665507031">
        <ele>45</ele>
        <time>2019-09-23T17:44:43Z</time>
      </trkpt>
      <trkpt lat="59.313103586583" lon="17.687521254532">
        <ele>44</ele>
        <time>2019-09-23T17:44:48Z</time>
      </trkpt>
      <trkpt lat="59.313278852112" lon="17.687434669505">
        <ele>43.6</ele>
        <time>2019-09-23T17:44:56Z</time>
      </trkpt>
      <trkpt lat="59.313399216196" lon="17.687409188529">
        <ele>44</ele>
        <time>2019-09-23T17:45:02Z</time>
      </trkpt>
      <trkpt lat="59.313453530908" lon="17.687413211841">
        <ele>45.2</ele>
        <time>2019-09-23T17:45:06Z</time>
      </trkpt>
      <trkpt lat="59.313488734888" lon="17.687372894902">
        <ele>46.2</ele>
        <time>2019-09-23T17:45:09Z</time>
      </trkpt>
      <trkpt lat="59.313615553035" lon="17.68712244373">
        <ele>46.4</ele>
        <time>2019-09-23T17:45:17Z</time>
      </trkpt>
      <trkpt lat="59.31376181719" lon="17.686834776922">
        <ele>46</ele>
        <time>2019-09-23T17:45:22Z</time>
      </trkpt>
      <trkpt lat="59.313808252916" lon="17.686745677325">
        <ele>45.2</ele>
        <time>2019-09-23T17:45:24Z</time>
      </trkpt>
      <trkpt lat="59.313828201838" lon="17.686701085617">
        <ele>45.2</ele>
        <time>2019-09-23T17:45:25Z</time>
      </trkpt>
      <trkpt lat="59.313893077744" lon="17.686507631365">
        <ele>45.2</ele>
        <time>2019-09-23T17:45:29Z</time>
      </trkpt>
      <trkpt lat="59.313944291153" lon="17.686238237099">
        <ele>44</ele>
        <time>2019-09-23T17:45:35Z</time>
      </trkpt>
      <trkpt lat="59.314106397099" lon="17.685977643828">
        <ele>43.4</ele>
        <time>2019-09-23T17:45:42Z</time>
      </trkpt>
      <trkpt lat="59.314274454194" lon="17.685821237574">
        <ele>44</ele>
        <time>2019-09-23T17:45:49Z</time>
      </trkpt>
      <trkpt lat="59.314451982836" lon="17.685626861313">
        <ele>44.4</ele>
        <time>2019-09-23T17:45:55Z</time>
      </trkpt>
      <trkpt lat="59.314584333037" lon="17.685359478703">
        <ele>43.6</ele>
        <time>2019-09-23T17:46:01Z</time>
      </trkpt>
      <trkpt lat="59.314605623063" lon="17.685160911492">
        <ele>43</ele>
        <time>2019-09-23T17:46:06Z</time>
      </trkpt>
      <trkpt lat="59.314589362177" lon="17.685061166882">
        <ele>43</ele>
        <time>2019-09-23T17:46:08Z</time>
      </trkpt>
      <trkpt lat="59.314493724698" lon="17.684710803462">
        <ele>42</ele>
        <time>2019-09-23T17:46:13Z</time>
      </trkpt>
      <trkpt lat="59.314466567342" lon="17.68458188984">
        <ele>41.8</ele>
        <time>2019-09-23T17:46:15Z</time>
      </trkpt>
      <trkpt lat="59.314466651161" lon="17.684185509789">
        <ele>41.4</ele>
        <time>2019-09-23T17:46:22Z</time>
      </trkpt>
      <trkpt lat="59.314534041637" lon="17.683812179963">
        <ele>40.8</ele>
        <time>2019-09-23T17:46:28Z</time>
      </trkpt>
      <trkpt lat="59.314720622731" lon="17.683611433458">
        <ele>41.2</ele>
        <time>2019-09-23T17:46:33Z</time>
      </trkpt>
      <trkpt lat="59.314903096694" lon="17.683433988635">
        <ele>41</ele>
        <time>2019-09-23T17:46:38Z</time>
      </trkpt>
      <trkpt lat="59.314995716689" lon="17.683323263736">
        <ele>40.6</ele>
        <time>2019-09-23T17:46:41Z</time>
      </trkpt>
      <trkpt lat="59.315167629458" lon="17.6831351739">
        <ele>40.6</ele>
        <time>2019-09-23T17:46:47Z</time>
      </trkpt>
      <trkpt lat="59.315349516688" lon="17.68297340323">
        <ele>41.4</ele>
        <time>2019-09-23T17:46:55Z</time>
      </trkpt>
      <trkpt lat="59.315470551324" lon="17.682948341349">
        <ele>41.8</ele>
        <time>2019-09-23T17:46:59Z</time>
      </trkpt>
      <trkpt lat="59.315502318725" lon="17.682944318037">
        <ele>42.4</ele>
        <time>2019-09-23T17:47:02Z</time>
      </trkpt>
      <trkpt lat="59.315471305695" lon="17.682920681079">
        <ele>42.8</ele>
        <time>2019-09-23T17:47:07Z</time>
      </trkpt>
      <trkpt lat="59.315377931329" lon="17.682621195792">
        <ele>42.4</ele>
        <time>2019-09-23T17:47:16Z</time>
      </trkpt>
      <trkpt lat="59.31534851086" lon="17.682570904392">
        <ele>42</ele>
        <time>2019-09-23T17:47:18Z</time>
      </trkpt>
      <trkpt lat="59.315336273286" lon="17.682403350211">
        <ele>42</ele>
        <time>2019-09-23T17:47:22Z</time>
      </trkpt>
      <trkpt lat="59.315324957721" lon="17.682224145189">
        <ele>41.8</ele>
        <time>2019-09-23T17:47:26Z</time>
      </trkpt>
      <trkpt lat="59.315340799512" lon="17.682177709463">
        <ele>41.6</ele>
        <time>2019-09-23T17:47:27Z</time>
      </trkpt>
      <trkpt lat="59.315403999038" lon="17.681951146706">
        <ele>40.4</ele>
        <time>2019-09-23T17:47:32Z</time>
      </trkpt>
      <trkpt lat="59.315533247936" lon="17.68166079769">
        <ele>40</ele>
        <time>2019-09-23T17:47:40Z</time>
      </trkpt>
      <trkpt lat="59.315577923463" lon="17.681459883547">
        <ele>39.2</ele>
        <time>2019-09-23T17:47:44Z</time>
      </trkpt>
      <trkpt lat="59.315698539004" lon="17.6811905731">
        <ele>38.6</ele>
        <time>2019-09-23T17:47:50Z</time>
      </trkpt>
      <trkpt lat="59.315852682145" lon="17.68099611302">
        <ele>38.8</ele>
        <time>2019-09-23T17:47:57Z</time>
      </trkpt>
      <trkpt lat="59.315958377904" lon="17.680906091414">
        <ele>40.2</ele>
        <time>2019-09-23T17:48:01Z</time>
      </trkpt>
      <trkpt lat="59.316073712848" lon="17.680608282507">
        <ele>40.6</ele>
        <time>2019-09-23T17:48:06Z</time>
      </trkpt>
      <trkpt lat="59.316111682855" lon="17.68043787848">
        <ele>40.8</ele>
        <time>2019-09-23T17:48:10Z</time>
      </trkpt>
      <trkpt lat="59.316072287925" lon="17.680060944437">
        <ele>39.2</ele>
        <time>2019-09-23T17:48:16Z</time>
      </trkpt>
      <trkpt lat="59.316133978709" lon="17.679712676492">
        <ele>38.4</ele>
        <time>2019-09-23T17:48:21Z</time>
      </trkpt>
      <trkpt lat="59.316183934833" lon="17.679520563344">
        <ele>38.6</ele>
        <time>2019-09-23T17:48:24Z</time>
      </trkpt>
      <trkpt lat="59.316241434667" lon="17.679436325249">
        <ele>39.8</ele>
        <time>2019-09-23T17:48:27Z</time>
      </trkpt>
      <trkpt lat="59.316257444096" lon="17.679393996654">
        <ele>40.2</ele>
        <time>2019-09-23T17:48:28Z</time>
      </trkpt>
      <trkpt lat="59.316339921992" lon="17.679314033328">
        <ele>40.8</ele>
        <time>2019-09-23T17:48:31Z</time>
      </trkpt>
      <trkpt lat="59.316428015761" lon="17.678987223047">
        <ele>40.2</ele>
        <time>2019-09-23T17:48:37Z</time>
      </trkpt>
      <trkpt lat="59.316502949947" lon="17.678649097201">
        <ele>39.8</ele>
        <time>2019-09-23T17:48:43Z</time>
      </trkpt>
      <trkpt lat="59.316483503939" lon="17.678302505636">
        <ele>39</ele>
        <time>2019-09-23T17:48:49Z</time>
      </trkpt>
      <trkpt lat="59.316513427322" lon="17.677900090617">
        <ele>38.8</ele>
        <time>2019-09-23T17:48:55Z</time>
      </trkpt>
      <trkpt lat="59.316554414813" lon="17.677612759085">
        <ele>38</ele>
        <time>2019-09-23T17:49:00Z</time>
      </trkpt>
      <trkpt lat="59.3165605336" lon="17.677564898436">
        <ele>38</ele>
        <time>2019-09-23T17:49:01Z</time>
      </trkpt>
      <trkpt lat="59.316608561887" lon="17.677174637172">
        <ele>37.2</ele>
        <time>2019-09-23T17:49:08Z</time>
      </trkpt>
      <trkpt lat="59.316612333742" lon="17.677045472093">
        <ele>36.8</ele>
        <time>2019-09-23T17:49:10Z</time>
      </trkpt>
      <trkpt lat="59.316622056746" lon="17.676779598225">
        <ele>35.8</ele>
        <time>2019-09-23T17:49:14Z</time>
      </trkpt>
      <trkpt lat="59.316736050586" lon="17.676460834568">
        <ele>36</ele>
        <time>2019-09-23T17:49:21Z</time>
      </trkpt>
      <trkpt lat="59.31676672834" lon="17.676245335919">
        <ele>35.8</ele>
        <time>2019-09-23T17:49:25Z</time>
      </trkpt>
      <trkpt lat="59.316779552647" lon="17.67587477212">
        <ele>35.4</ele>
        <time>2019-09-23T17:49:30Z</time>
      </trkpt>
      <trkpt lat="59.316833448264" lon="17.675524660157">
        <ele>35.4</ele>
        <time>2019-09-23T17:49:36Z</time>
      </trkpt>
      <trkpt lat="59.316925732983" lon="17.675190389985">
        <ele>36</ele>
        <time>2019-09-23T17:49:42Z</time>
      </trkpt>
      <trkpt lat="59.317014748761" lon="17.674934155302">
        <ele>36.8</ele>
        <time>2019-09-23T17:49:47Z</time>
      </trkpt>
      <trkpt lat="59.317119522511" lon="17.674593766343">
        <ele>36.8</ele>
        <time>2019-09-23T17:49:53Z</time>
      </trkpt>
      <trkpt lat="59.317245251011" lon="17.674324874991">
        <ele>37.2</ele>
        <time>2019-09-23T17:49:58Z</time>
      </trkpt>
      <trkpt lat="59.31731071365" lon="17.673980714177">
        <ele>37.2</ele>
        <time>2019-09-23T17:50:04Z</time>
      </trkpt>
      <trkpt lat="59.317368297303" lon="17.67364434853">
        <ele>36.6</ele>
        <time>2019-09-23T17:50:10Z</time>
      </trkpt>
      <trkpt lat="59.31740123817" lon="17.673264983736">
        <ele>36.4</ele>
        <time>2019-09-23T17:50:16Z</time>
      </trkpt>
      <trkpt lat="59.317450607561" lon="17.672925935881">
        <ele>36</ele>
        <time>2019-09-23T17:50:22Z</time>
      </trkpt>
      <trkpt lat="59.317455133787" lon="17.672863574545">
        <ele>35.6</ele>
        <time>2019-09-23T17:50:23Z</time>
      </trkpt>
      <trkpt lat="59.317537946959" lon="17.672483874475">
        <ele>35.2</ele>
        <time>2019-09-23T17:50:29Z</time>
      </trkpt>
      <trkpt lat="59.31764347508" lon="17.672175755831">
        <ele>34.8</ele>
        <time>2019-09-23T17:50:35Z</time>
      </trkpt>
      <trkpt lat="59.317657137577" lon="17.672107610984">
        <ele>34.4</ele>
        <time>2019-09-23T17:50:36Z</time>
      </trkpt>
      <trkpt lat="59.317716649067" lon="17.671720534842">
        <ele>33.6</ele>
        <time>2019-09-23T17:50:42Z</time>
      </trkpt>
      <trkpt lat="59.317741459491" lon="17.671430269645">
        <ele>33.4</ele>
        <time>2019-09-23T17:50:47Z</time>
      </trkpt>
      <trkpt lat="59.317773897444" lon="17.671222398525">
        <ele>32.2</ele>
        <time>2019-09-23T17:50:51Z</time>
      </trkpt>
      <trkpt lat="59.317806000121" lon="17.670856193314">
        <ele>31.2</ele>
        <time>2019-09-23T17:50:57Z</time>
      </trkpt>
      <trkpt lat="59.317820919903" lon="17.670792909969">
        <ele>31</ele>
        <time>2019-09-23T17:50:58Z</time>
      </trkpt>
      <trkpt lat="59.317893171881" lon="17.670552600896">
        <ele>29.8</ele>
        <time>2019-09-23T17:51:02Z</time>
      </trkpt>
      <trkpt lat="59.318003477685" lon="17.670266945744">
        <ele>29</ele>
        <time>2019-09-23T17:51:07Z</time>
      </trkpt>
      <trkpt lat="59.318046728289" lon="17.670132835344">
        <ele>28.8</ele>
        <time>2019-09-23T17:51:09Z</time>
      </trkpt>
      <trkpt lat="59.31814638908" lon="17.669830081116">
        <ele>28.2</ele>
        <time>2019-09-23T17:51:14Z</time>
      </trkpt>
      <trkpt lat="59.318212941366" lon="17.669673926319">
        <ele>27.6</ele>
        <time>2019-09-23T17:51:17Z</time>
      </trkpt>
      <trkpt lat="59.318281756765" lon="17.669463708267">
        <ele>26.4</ele>
        <time>2019-09-23T17:51:21Z</time>
      </trkpt>
      <trkpt lat="59.318426428359" lon="17.669164725894">
        <ele>25.8</ele>
        <time>2019-09-23T17:51:27Z</time>
      </trkpt>
      <trkpt lat="59.318471942076" lon="17.669052576072">
        <ele>25.2</ele>
        <time>2019-09-23T17:51:29Z</time>
      </trkpt>
      <trkpt lat="59.318596245653" lon="17.668743619238">
        <ele>24.2</ele>
        <time>2019-09-23T17:51:35Z</time>
      </trkpt>
      <trkpt lat="59.318725243094" lon="17.668477242456">
        <ele>24</ele>
        <time>2019-09-23T17:51:41Z</time>
      </trkpt>
      <trkpt lat="59.318842254418" lon="17.668237017202">
        <ele>23</ele>
        <time>2019-09-23T17:51:46Z</time>
      </trkpt>
      <trkpt lat="59.31918825925" lon="17.668241878704">
        <ele>24</ele>
        <time>2019-09-23T17:51:54Z</time>
      </trkpt>
      <trkpt lat="59.319242490143" lon="17.668261408531">
        <ele>23.8</ele>
        <time>2019-09-23T17:51:55Z</time>
      </trkpt>
      <trkpt lat="59.319328320799" lon="17.66828496167">
        <ele>22.8</ele>
        <time>2019-09-23T17:51:57Z</time>
      </trkpt>
      <trkpt lat="59.319463688484" lon="17.668279513435">
        <ele>22.4</ele>
        <time>2019-09-23T17:52:00Z</time>
      </trkpt>
      <trkpt lat="59.319612467209" lon="17.66825394864">
        <ele>23.4</ele>
        <time>2019-09-23T17:52:05Z</time>
      </trkpt>
    </trkseg>
  </trk>
</gpx>